sensor_id;sensor_type;location;lat;lon;timestamp;P1;durP1;ratioP1;P2;durP2;ratioP2
22812;SDS011;11573;51.334;3.244;2022-12-24T00:00:59;70.80;;;12.02;;
22812;SDS011;11573;51.334;3.244;2022-12-24T00:03:26;68.13;;;10.73;;
22812;SDS011;11573;51.334;3.244;2022-12-24T00:05:53;64.10;;;9.60;;
22812;SDS011;11573;51.334;3.244;2022-12-24T00:08:20;69.53;;;10.95;;
22812;SDS011;11573;51.334;3.244;2022-12-24T00:10:48;79.65;;;11.25;;
22812;SDS011;11573;51.334;3.244;2022-12-24T00:13:17;73.97;;;10.15;;
22812;SDS011;11573;51.334;3.244;2022-12-24T00:15:44;75.55;;;11.52;;
22812;SDS011;11573;51.334;3.244;2022-12-24T00:18:11;66.35;;;9.95;;
22812;SDS011;11573;51.334;3.244;2022-12-24T00:20:38;82.50;;;11.15;;
22812;SDS011;11573;51.334;3.244;2022-12-24T00:23:05;62.75;;;10.85;;
22812;SDS011;11573;51.334;3.244;2022-12-24T00:25:32;62.35;;;11.52;;
22812;SDS011;11573;51.334;3.244;2022-12-24T00:27:59;72.40;;;11.80;;
22812;SDS011;11573;51.334;3.244;2022-12-24T00:30:26;61.30;;;11.77;;
22812;SDS011;11573;51.334;3.244;2022-12-24T00:32:53;60.35;;;10.07;;
22812;SDS011;11573;51.334;3.244;2022-12-24T00:35:20;53.08;;;9.98;;
22812;SDS011;11573;51.334;3.244;2022-12-24T00:37:47;62.58;;;10.27;;
22812;SDS011;11573;51.334;3.244;2022-12-24T00:40:15;61.30;;;9.45;;
22812;SDS011;11573;51.334;3.244;2022-12-24T00:42:43;53.65;;;9.30;;
22812;SDS011;11573;51.334;3.244;2022-12-24T00:45:10;61.28;;;9.10;;
22812;SDS011;11573;51.334;3.244;2022-12-24T00:47:38;50.15;;;8.27;;
22812;SDS011;11573;51.334;3.244;2022-12-24T00:50:05;58.22;;;10.32;;
22812;SDS011;11573;51.334;3.244;2022-12-24T00:52:32;55.42;;;10.27;;
22812;SDS011;11573;51.334;3.244;2022-12-24T00:54:59;54.17;;;8.85;;
22812;SDS011;11573;51.334;3.244;2022-12-24T00:57:26;64.88;;;8.95;;
22812;SDS011;11573;51.334;3.244;2022-12-24T00:59:53;51.70;;;7.82;;
22812;SDS011;11573;51.334;3.244;2022-12-24T01:02:20;43.58;;;8.10;;
22812;SDS011;11573;51.334;3.244;2022-12-24T01:04:48;52.80;;;7.88;;
22812;SDS011;11573;51.334;3.244;2022-12-24T01:07:34;48.10;;;7.78;;
22812;SDS011;11573;51.334;3.244;2022-12-24T01:10:01;41.67;;;6.82;;
22812;SDS011;11573;51.334;3.244;2022-12-24T01:12:29;52.30;;;7.90;;
22812;SDS011;11573;51.334;3.244;2022-12-24T01:14:56;43.83;;;6.45;;
22812;SDS011;11573;51.334;3.244;2022-12-24T01:17:23;50.65;;;7.70;;
22812;SDS011;11573;51.334;3.244;2022-12-24T01:19:50;47.67;;;7.88;;
22812;SDS011;11573;51.334;3.244;2022-12-24T01:22:18;49.03;;;7.95;;
22812;SDS011;11573;51.334;3.244;2022-12-24T01:24:45;51.33;;;8.05;;
22812;SDS011;11573;51.334;3.244;2022-12-24T01:27:12;55.55;;;9.00;;
22812;SDS011;11573;51.334;3.244;2022-12-24T01:29:39;54.20;;;8.63;;
22812;SDS011;11573;51.334;3.244;2022-12-24T01:32:06;60.78;;;8.93;;
22812;SDS011;11573;51.334;3.244;2022-12-24T01:34:33;59.45;;;8.93;;
22812;SDS011;11573;51.334;3.244;2022-12-24T01:37:00;55.90;;;9.32;;
22812;SDS011;11573;51.334;3.244;2022-12-24T01:39:27;63.13;;;8.90;;
22812;SDS011;11573;51.334;3.244;2022-12-24T01:41:54;64.43;;;9.15;;
22812;SDS011;11573;51.334;3.244;2022-12-24T01:44:41;61.40;;;9.45;;
22812;SDS011;11573;51.334;3.244;2022-12-24T01:47:10;75.88;;;10.10;;
22812;SDS011;11573;51.334;3.244;2022-12-24T01:49:45;67.18;;;9.43;;
22812;SDS011;11573;51.334;3.244;2022-12-24T01:52:17;77.20;;;11.93;;
22812;SDS011;11573;51.334;3.244;2022-12-24T01:54:48;79.15;;;11.75;;
22812;SDS011;11573;51.334;3.244;2022-12-24T01:57:24;58.40;;;10.13;;
22812;SDS011;11573;51.334;3.244;2022-12-24T01:59:57;69.70;;;12.02;;
22812;SDS011;11573;51.334;3.244;2022-12-24T02:02:32;66.63;;;11.38;;
22812;SDS011;11573;51.334;3.244;2022-12-24T02:05:02;82.93;;;12.90;;
22812;SDS011;11573;51.334;3.244;2022-12-24T02:07:33;80.75;;;12.88;;
22812;SDS011;11573;51.334;3.244;2022-12-24T02:10:02;67.68;;;11.55;;
22812;SDS011;11573;51.334;3.244;2022-12-24T02:12:30;75.20;;;11.77;;
22812;SDS011;11573;51.334;3.244;2022-12-24T02:15:00;62.55;;;12.05;;
22812;SDS011;11573;51.334;3.244;2022-12-24T02:20:23;63.08;;;11.40;;
22812;SDS011;11573;51.334;3.244;2022-12-24T02:31:23;73.13;;;12.07;;
22812;SDS011;11573;51.334;3.244;2022-12-24T02:36:59;61.45;;;10.02;;
22812;SDS011;11573;51.334;3.244;2022-12-24T02:39:56;68.95;;;11.68;;
22812;SDS011;11573;51.334;3.244;2022-12-24T02:42:42;77.68;;;10.90;;
22812;SDS011;11573;51.334;3.244;2022-12-24T02:45:17;66.40;;;10.88;;
22812;SDS011;11573;51.334;3.244;2022-12-24T02:47:47;59.92;;;10.55;;
22812;SDS011;11573;51.334;3.244;2022-12-24T02:50:16;63.15;;;10.80;;
22812;SDS011;11573;51.334;3.244;2022-12-24T02:52:45;62.72;;;10.35;;
22812;SDS011;11573;51.334;3.244;2022-12-24T02:55:14;73.28;;;10.45;;
22812;SDS011;11573;51.334;3.244;2022-12-24T03:00:27;66.32;;;9.18;;
22812;SDS011;11573;51.334;3.244;2022-12-24T03:03:23;74.10;;;9.73;;
22812;SDS011;11573;51.334;3.244;2022-12-24T03:06:51;57.72;;;9.27;;
22812;SDS011;11573;51.334;3.244;2022-12-24T03:12:29;64.13;;;11.27;;
22812;SDS011;11573;51.334;3.244;2022-12-24T03:17:37;62.70;;;9.68;;
22812;SDS011;11573;51.334;3.244;2022-12-24T03:20:06;59.53;;;10.73;;
22812;SDS011;11573;51.334;3.244;2022-12-24T03:22:35;62.60;;;10.63;;
22812;SDS011;11573;51.334;3.244;2022-12-24T03:25:04;70.97;;;11.57;;
22812;SDS011;11573;51.334;3.244;2022-12-24T03:27:31;64.13;;;10.38;;
22812;SDS011;11573;51.334;3.244;2022-12-24T03:30:00;66.05;;;10.23;;
22812;SDS011;11573;51.334;3.244;2022-12-24T03:32:29;72.68;;;11.65;;
22812;SDS011;11573;51.334;3.244;2022-12-24T03:34:57;58.05;;;10.75;;
22812;SDS011;11573;51.334;3.244;2022-12-24T03:37:24;79.85;;;11.15;;
22812;SDS011;11573;51.334;3.244;2022-12-24T03:39:52;70.45;;;10.18;;
22812;SDS011;11573;51.334;3.244;2022-12-24T03:42:19;59.45;;;11.18;;
22812;SDS011;11573;51.334;3.244;2022-12-24T03:44:46;71.68;;;9.85;;
22812;SDS011;11573;51.334;3.244;2022-12-24T03:47:13;77.60;;;10.82;;
22812;SDS011;11573;51.334;3.244;2022-12-24T03:49:40;57.25;;;9.48;;
22812;SDS011;11573;51.334;3.244;2022-12-24T03:52:07;65.75;;;10.13;;
22812;SDS011;11573;51.334;3.244;2022-12-24T03:54:34;59.55;;;10.57;;
22812;SDS011;11573;51.334;3.244;2022-12-24T03:57:00;56.85;;;9.48;;
22812;SDS011;11573;51.334;3.244;2022-12-24T03:59:27;53.08;;;9.82;;
22812;SDS011;11573;51.334;3.244;2022-12-24T04:01:54;53.80;;;7.95;;
22812;SDS011;11573;51.334;3.244;2022-12-24T04:04:22;68.65;;;10.13;;
22812;SDS011;11573;51.334;3.244;2022-12-24T04:06:49;64.03;;;10.57;;
22812;SDS011;11573;51.334;3.244;2022-12-24T04:09:16;58.75;;;9.32;;
22812;SDS011;11573;51.334;3.244;2022-12-24T04:11:43;66.18;;;10.40;;
22812;SDS011;11573;51.334;3.244;2022-12-24T04:14:10;52.13;;;9.32;;
22812;SDS011;11573;51.334;3.244;2022-12-24T04:16:37;54.88;;;9.43;;
22812;SDS011;11573;51.334;3.244;2022-12-24T04:19:04;59.85;;;8.73;;
22812;SDS011;11573;51.334;3.244;2022-12-24T04:21:31;59.28;;;9.27;;
22812;SDS011;11573;51.334;3.244;2022-12-24T04:23:58;58.50;;;8.50;;
22812;SDS011;11573;51.334;3.244;2022-12-24T04:26:25;57.10;;;8.63;;
22812;SDS011;11573;51.334;3.244;2022-12-24T04:28:52;56.47;;;8.30;;
22812;SDS011;11573;51.334;3.244;2022-12-24T04:31:19;70.22;;;10.68;;
22812;SDS011;11573;51.334;3.244;2022-12-24T04:33:46;63.80;;;9.60;;
22812;SDS011;11573;51.334;3.244;2022-12-24T04:36:14;58.45;;;9.98;;
22812;SDS011;11573;51.334;3.244;2022-12-24T04:38:42;56.67;;;9.70;;
22812;SDS011;11573;51.334;3.244;2022-12-24T04:41:17;71.45;;;10.30;;
22812;SDS011;11573;51.334;3.244;2022-12-24T04:43:50;71.88;;;9.80;;
22812;SDS011;11573;51.334;3.244;2022-12-24T04:46:20;73.45;;;10.02;;
22812;SDS011;11573;51.334;3.244;2022-12-24T04:48:52;74.93;;;10.15;;
22812;SDS011;11573;51.334;3.244;2022-12-24T04:51:20;72.45;;;9.75;;
22812;SDS011;11573;51.334;3.244;2022-12-24T04:53:48;70.90;;;11.55;;
22812;SDS011;11573;51.334;3.244;2022-12-24T04:56:17;70.28;;;10.45;;
22812;SDS011;11573;51.334;3.244;2022-12-24T04:58:46;69.05;;;9.75;;
22812;SDS011;11573;51.334;3.244;2022-12-24T05:01:14;67.53;;;9.95;;
22812;SDS011;11573;51.334;3.244;2022-12-24T05:03:45;69.18;;;10.27;;
22812;SDS011;11573;51.334;3.244;2022-12-24T05:06:13;63.55;;;10.40;;
22812;SDS011;11573;51.334;3.244;2022-12-24T05:08:42;65.35;;;10.98;;
22812;SDS011;11573;51.334;3.244;2022-12-24T05:11:09;55.72;;;8.25;;
22812;SDS011;11573;51.334;3.244;2022-12-24T05:13:40;67.00;;;10.23;;
22812;SDS011;11573;51.334;3.244;2022-12-24T05:16:14;76.72;;;10.90;;
22812;SDS011;11573;51.334;3.244;2022-12-24T05:18:42;70.15;;;10.07;;
22812;SDS011;11573;51.334;3.244;2022-12-24T05:21:10;66.18;;;9.38;;
22812;SDS011;11573;51.334;3.244;2022-12-24T05:23:40;64.57;;;9.80;;
22812;SDS011;11573;51.334;3.244;2022-12-24T05:26:36;72.53;;;9.77;;
22812;SDS011;11573;51.334;3.244;2022-12-24T05:29:04;64.97;;;8.75;;
22812;SDS011;11573;51.334;3.244;2022-12-24T05:31:32;54.35;;;8.73;;
22812;SDS011;11573;51.334;3.244;2022-12-24T05:33:59;70.28;;;9.95;;
22812;SDS011;11573;51.334;3.244;2022-12-24T05:36:27;57.70;;;8.88;;
22812;SDS011;11573;51.334;3.244;2022-12-24T05:38:54;59.63;;;9.05;;
22812;SDS011;11573;51.334;3.244;2022-12-24T05:41:21;64.70;;;9.60;;
22812;SDS011;11573;51.334;3.244;2022-12-24T05:43:48;62.55;;;9.43;;
22812;SDS011;11573;51.334;3.244;2022-12-24T05:46:17;64.45;;;9.45;;
22812;SDS011;11573;51.334;3.244;2022-12-24T05:48:46;68.28;;;9.23;;
22812;SDS011;11573;51.334;3.244;2022-12-24T05:51:14;54.50;;;8.70;;
22812;SDS011;11573;51.334;3.244;2022-12-24T05:53:45;43.72;;;7.93;;
22812;SDS011;11573;51.334;3.244;2022-12-24T05:56:14;54.47;;;8.45;;
22812;SDS011;11573;51.334;3.244;2022-12-24T05:58:43;60.65;;;8.57;;
22812;SDS011;11573;51.334;3.244;2022-12-24T06:01:10;57.20;;;9.05;;
22812;SDS011;11573;51.334;3.244;2022-12-24T06:03:38;53.85;;;7.95;;
22812;SDS011;11573;51.334;3.244;2022-12-24T06:06:07;54.53;;;8.30;;
22812;SDS011;11573;51.334;3.244;2022-12-24T06:08:36;60.70;;;8.82;;
22812;SDS011;11573;51.334;3.244;2022-12-24T06:11:04;65.18;;;9.48;;
22812;SDS011;11573;51.334;3.244;2022-12-24T06:13:33;58.25;;;8.50;;
22812;SDS011;11573;51.334;3.244;2022-12-24T06:16:01;59.22;;;9.43;;
22812;SDS011;11573;51.334;3.244;2022-12-24T06:18:30;48.03;;;8.07;;
22812;SDS011;11573;51.334;3.244;2022-12-24T06:20:59;56.00;;;8.05;;
22812;SDS011;11573;51.334;3.244;2022-12-24T06:23:27;54.08;;;7.97;;
22812;SDS011;11573;51.334;3.244;2022-12-24T06:25:56;58.22;;;8.35;;
22812;SDS011;11573;51.334;3.244;2022-12-24T06:28:26;59.25;;;7.90;;
22812;SDS011;11573;51.334;3.244;2022-12-24T06:30:57;61.30;;;8.75;;
22812;SDS011;11573;51.334;3.244;2022-12-24T06:33:29;49.67;;;8.20;;
22812;SDS011;11573;51.334;3.244;2022-12-24T06:36:00;48.80;;;8.25;;
22812;SDS011;11573;51.334;3.244;2022-12-24T06:38:28;56.50;;;9.55;;
22812;SDS011;11573;51.334;3.244;2022-12-24T06:40:56;50.42;;;8.40;;
22812;SDS011;11573;51.334;3.244;2022-12-24T06:43:23;57.70;;;8.50;;
22812;SDS011;11573;51.334;3.244;2022-12-24T06:45:50;64.03;;;8.05;;
22812;SDS011;11573;51.334;3.244;2022-12-24T06:48:17;56.92;;;7.65;;
22812;SDS011;11573;51.334;3.244;2022-12-24T06:50:44;47.97;;;8.40;;
22812;SDS011;11573;51.334;3.244;2022-12-24T06:53:11;51.63;;;8.65;;
22812;SDS011;11573;51.334;3.244;2022-12-24T06:55:38;56.33;;;8.32;;
22812;SDS011;11573;51.334;3.244;2022-12-24T06:58:05;56.83;;;8.05;;
22812;SDS011;11573;51.334;3.244;2022-12-24T07:00:32;49.60;;;7.93;;
22812;SDS011;11573;51.334;3.244;2022-12-24T07:02:59;50.13;;;8.13;;
22812;SDS011;11573;51.334;3.244;2022-12-24T07:05:27;57.55;;;9.02;;
22812;SDS011;11573;51.334;3.244;2022-12-24T07:07:54;62.58;;;9.13;;
22812;SDS011;11573;51.334;3.244;2022-12-24T07:10:21;60.17;;;9.23;;
22812;SDS011;11573;51.334;3.244;2022-12-24T07:12:48;50.80;;;7.90;;
22812;SDS011;11573;51.334;3.244;2022-12-24T07:15:15;55.45;;;8.23;;
22812;SDS011;11573;51.334;3.244;2022-12-24T07:17:42;61.38;;;9.00;;
22812;SDS011;11573;51.334;3.244;2022-12-24T07:20:11;56.10;;;7.40;;
22812;SDS011;11573;51.334;3.244;2022-12-24T07:22:42;51.83;;;9.02;;
22812;SDS011;11573;51.334;3.244;2022-12-24T07:25:09;53.60;;;9.50;;
22812;SDS011;11573;51.334;3.244;2022-12-24T07:27:37;62.45;;;8.40;;
22812;SDS011;11573;51.334;3.244;2022-12-24T07:30:05;59.33;;;8.60;;
22812;SDS011;11573;51.334;3.244;2022-12-24T07:32:32;58.85;;;9.38;;
22812;SDS011;11573;51.334;3.244;2022-12-24T07:34:59;47.88;;;9.73;;
22812;SDS011;11573;51.334;3.244;2022-12-24T07:37:26;48.70;;;8.15;;
22812;SDS011;11573;51.334;3.244;2022-12-24T07:39:54;52.78;;;8.05;;
22812;SDS011;11573;51.334;3.244;2022-12-24T07:42:21;73.57;;;8.50;;
22812;SDS011;11573;51.334;3.244;2022-12-24T07:44:48;65.03;;;9.60;;
22812;SDS011;11573;51.334;3.244;2022-12-24T07:47:15;63.10;;;9.23;;
22812;SDS011;11573;51.334;3.244;2022-12-24T07:49:42;57.28;;;8.38;;
22812;SDS011;11573;51.334;3.244;2022-12-24T07:52:09;62.95;;;9.88;;
22812;SDS011;11573;51.334;3.244;2022-12-24T07:54:36;59.42;;;8.40;;
22812;SDS011;11573;51.334;3.244;2022-12-24T07:57:03;56.75;;;9.23;;
22812;SDS011;11573;51.334;3.244;2022-12-24T07:59:30;60.78;;;9.20;;
22812;SDS011;11573;51.334;3.244;2022-12-24T08:01:57;55.65;;;9.20;;
22812;SDS011;11573;51.334;3.244;2022-12-24T08:04:24;68.13;;;9.32;;
22812;SDS011;11573;51.334;3.244;2022-12-24T08:06:52;73.95;;;10.00;;
22812;SDS011;11573;51.334;3.244;2022-12-24T08:09:19;57.00;;;8.90;;
22812;SDS011;11573;51.334;3.244;2022-12-24T08:11:49;64.18;;;9.90;;
22812;SDS011;11573;51.334;3.244;2022-12-24T08:14:18;66.55;;;8.98;;
22812;SDS011;11573;51.334;3.244;2022-12-24T08:16:46;77.18;;;9.48;;
22812;SDS011;11573;51.334;3.244;2022-12-24T08:19:13;76.50;;;9.30;;
22812;SDS011;11573;51.334;3.244;2022-12-24T08:21:41;51.55;;;9.13;;
22812;SDS011;11573;51.334;3.244;2022-12-24T08:24:08;62.78;;;10.23;;
22812;SDS011;11573;51.334;3.244;2022-12-24T08:26:36;59.22;;;9.45;;
22812;SDS011;11573;51.334;3.244;2022-12-24T08:29:04;66.95;;;9.57;;
22812;SDS011;11573;51.334;3.244;2022-12-24T08:31:33;69.03;;;9.30;;
22812;SDS011;11573;51.334;3.244;2022-12-24T08:34:05;63.10;;;10.32;;
22812;SDS011;11573;51.334;3.244;2022-12-24T08:36:33;70.75;;;9.35;;
22812;SDS011;11573;51.334;3.244;2022-12-24T08:39:01;61.42;;;8.60;;
22812;SDS011;11573;51.334;3.244;2022-12-24T08:41:29;66.57;;;9.57;;
22812;SDS011;11573;51.334;3.244;2022-12-24T08:43:57;63.40;;;9.80;;
22812;SDS011;11573;51.334;3.244;2022-12-24T08:46:25;69.57;;;10.40;;
22812;SDS011;11573;51.334;3.244;2022-12-24T08:48:52;74.57;;;9.40;;
22812;SDS011;11573;51.334;3.244;2022-12-24T08:51:19;65.80;;;10.13;;
22812;SDS011;11573;51.334;3.244;2022-12-24T08:53:46;69.50;;;8.70;;
22812;SDS011;11573;51.334;3.244;2022-12-24T08:56:13;63.45;;;9.80;;
22812;SDS011;11573;51.334;3.244;2022-12-24T08:58:40;70.75;;;9.90;;
22812;SDS011;11573;51.334;3.244;2022-12-24T09:01:11;63.55;;;9.38;;
22812;SDS011;11573;51.334;3.244;2022-12-24T09:03:40;49.53;;;9.25;;
22812;SDS011;11573;51.334;3.244;2022-12-24T09:06:08;75.47;;;10.40;;
22812;SDS011;11573;51.334;3.244;2022-12-24T09:08:36;61.33;;;9.15;;
22812;SDS011;11573;51.334;3.244;2022-12-24T09:11:06;64.22;;;9.20;;
22812;SDS011;11573;51.334;3.244;2022-12-24T09:13:35;62.35;;;9.57;;
22812;SDS011;11573;51.334;3.244;2022-12-24T09:16:02;66.88;;;9.73;;
22812;SDS011;11573;51.334;3.244;2022-12-24T09:18:30;66.00;;;10.63;;
22812;SDS011;11573;51.334;3.244;2022-12-24T09:20:57;79.38;;;10.10;;
22812;SDS011;11573;51.334;3.244;2022-12-24T09:23:25;59.08;;;8.50;;
22812;SDS011;11573;51.334;3.244;2022-12-24T09:25:52;64.53;;;9.68;;
22812;SDS011;11573;51.334;3.244;2022-12-24T09:28:19;65.63;;;10.38;;
22812;SDS011;11573;51.334;3.244;2022-12-24T09:30:54;73.47;;;10.25;;
22812;SDS011;11573;51.334;3.244;2022-12-24T09:33:26;74.38;;;10.50;;
22812;SDS011;11573;51.334;3.244;2022-12-24T09:35:54;58.75;;;9.75;;
22812;SDS011;11573;51.334;3.244;2022-12-24T09:38:21;65.28;;;9.45;;
22812;SDS011;11573;51.334;3.244;2022-12-24T09:40:48;64.40;;;9.52;;
22812;SDS011;11573;51.334;3.244;2022-12-24T09:43:17;66.28;;;9.38;;
22812;SDS011;11573;51.334;3.244;2022-12-24T09:48:48;64.18;;;9.27;;
22812;SDS011;11573;51.334;3.244;2022-12-24T09:54:09;66.03;;;9.55;;
22812;SDS011;11573;51.334;3.244;2022-12-24T09:56:44;60.25;;;8.88;;
22812;SDS011;11573;51.334;3.244;2022-12-24T09:59:16;77.70;;;10.07;;
22812;SDS011;11573;51.334;3.244;2022-12-24T10:01:49;72.82;;;10.30;;
22812;SDS011;11573;51.334;3.244;2022-12-24T10:04:21;76.07;;;10.80;;
22812;SDS011;11573;51.334;3.244;2022-12-24T10:07:41;70.68;;;10.35;;
22812;SDS011;11573;51.334;3.244;2022-12-24T10:12:44;51.55;;;8.60;;
22812;SDS011;11573;51.334;3.244;2022-12-24T10:23:21;67.75;;;9.40;;
22812;SDS011;11573;51.334;3.244;2022-12-24T10:26:24;61.63;;;9.45;;
22812;SDS011;11573;51.334;3.244;2022-12-24T10:29:28;57.60;;;8.77;;
22812;SDS011;11573;51.334;3.244;2022-12-24T10:34:40;74.28;;;10.50;;
22812;SDS011;11573;51.334;3.244;2022-12-24T10:37:18;54.67;;;9.82;;
22812;SDS011;11573;51.334;3.244;2022-12-24T10:39:50;64.68;;;10.32;;
22812;SDS011;11573;51.334;3.244;2022-12-24T10:42:18;53.13;;;8.25;;
22812;SDS011;11573;51.334;3.244;2022-12-24T10:44:49;62.00;;;8.38;;
22812;SDS011;11573;51.334;3.244;2022-12-24T10:47:18;50.35;;;8.00;;
22812;SDS011;11573;51.334;3.244;2022-12-24T10:49:59;51.90;;;9.20;;
22812;SDS011;11573;51.334;3.244;2022-12-24T10:52:31;63.88;;;10.38;;
22812;SDS011;11573;51.334;3.244;2022-12-24T10:55:09;52.70;;;9.25;;
22812;SDS011;11573;51.334;3.244;2022-12-24T10:57:37;52.70;;;7.85;;
22812;SDS011;11573;51.334;3.244;2022-12-24T11:00:06;56.42;;;9.38;;
22812;SDS011;11573;51.334;3.244;2022-12-24T11:02:43;52.55;;;9.48;;
22812;SDS011;11573;51.334;3.244;2022-12-24T11:05:28;49.72;;;8.35;;
22812;SDS011;11573;51.334;3.244;2022-12-24T11:10:40;61.90;;;9.05;;
22812;SDS011;11573;51.334;3.244;2022-12-24T11:13:29;60.10;;;9.52;;
22812;SDS011;11573;51.334;3.244;2022-12-24T11:16:09;44.78;;;7.25;;
22812;SDS011;11573;51.334;3.244;2022-12-24T11:18:45;47.17;;;7.82;;
22812;SDS011;11573;51.334;3.244;2022-12-24T11:24:07;50.70;;;9.38;;
22812;SDS011;11573;51.334;3.244;2022-12-24T11:26:38;46.05;;;7.65;;
22812;SDS011;11573;51.334;3.244;2022-12-24T11:29:20;44.03;;;8.38;;
22812;SDS011;11573;51.334;3.244;2022-12-24T11:31:49;39.85;;;7.47;;
22812;SDS011;11573;51.334;3.244;2022-12-24T11:36:53;44.33;;;7.23;;
22812;SDS011;11573;51.334;3.244;2022-12-24T11:39:40;52.63;;;8.77;;
22812;SDS011;11573;51.334;3.244;2022-12-24T11:42:30;42.97;;;8.15;;
22812;SDS011;11573;51.334;3.244;2022-12-24T11:44:58;52.30;;;8.57;;
22812;SDS011;11573;51.334;3.244;2022-12-24T11:47:31;46.08;;;8.23;;
22812;SDS011;11573;51.334;3.244;2022-12-24T11:56:07;51.72;;;7.88;;
22812;SDS011;11573;51.334;3.244;2022-12-24T12:01:12;39.97;;;7.43;;
22812;SDS011;11573;51.334;3.244;2022-12-24T12:06:49;56.80;;;9.80;;
22812;SDS011;11573;51.334;3.244;2022-12-24T12:09:22;35.03;;;7.57;;
22812;SDS011;11573;51.334;3.244;2022-12-24T12:12:12;49.03;;;8.65;;
22812;SDS011;11573;51.334;3.244;2022-12-24T12:14:51;47.58;;;8.60;;
22812;SDS011;11573;51.334;3.244;2022-12-24T12:25:26;48.10;;;7.93;;
22812;SDS011;11573;51.334;3.244;2022-12-24T12:28:03;44.65;;;8.57;;
22812;SDS011;11573;51.334;3.244;2022-12-24T12:30:37;55.83;;;9.47;;
22812;SDS011;11573;51.334;3.244;2022-12-24T12:33:12;47.95;;;8.60;;
22812;SDS011;11573;51.334;3.244;2022-12-24T12:35:41;51.03;;;9.57;;
22812;SDS011;11573;51.334;3.244;2022-12-24T12:38:10;49.83;;;8.60;;
22812;SDS011;11573;51.334;3.244;2022-12-24T12:49:18;53.42;;;9.18;;
22812;SDS011;11573;51.334;3.244;2022-12-24T12:54:48;49.45;;;9.38;;
22812;SDS011;11573;51.334;3.244;2022-12-24T12:57:30;45.70;;;9.05;;
22812;SDS011;11573;51.334;3.244;2022-12-24T13:00:11;43.45;;;9.60;;
22812;SDS011;11573;51.334;3.244;2022-12-24T13:05:40;50.72;;;9.70;;
22812;SDS011;11573;51.334;3.244;2022-12-24T13:22:03;54.13;;;9.65;;
22812;SDS011;11573;51.334;3.244;2022-12-24T13:24:31;47.65;;;9.63;;
22812;SDS011;11573;51.334;3.244;2022-12-24T13:26:59;47.08;;;9.57;;
22812;SDS011;11573;51.334;3.244;2022-12-24T13:29:30;44.88;;;7.57;;
22812;SDS011;11573;51.334;3.244;2022-12-24T13:34:48;40.45;;;8.13;;
22812;SDS011;11573;51.334;3.244;2022-12-24T13:47:57;43.25;;;9.35;;
22812;SDS011;11573;51.334;3.244;2022-12-24T13:58:43;42.90;;;9.52;;
22812;SDS011;11573;51.334;3.244;2022-12-24T14:01:21;44.03;;;8.90;;
22812;SDS011;11573;51.334;3.244;2022-12-24T14:04:00;45.15;;;8.65;;
22812;SDS011;11573;51.334;3.244;2022-12-24T14:06:31;45.47;;;7.85;;
22812;SDS011;11573;51.334;3.244;2022-12-24T14:09:12;46.03;;;9.20;;
22812;SDS011;11573;51.334;3.244;2022-12-24T14:12:29;47.92;;;8.15;;
22812;SDS011;11573;51.334;3.244;2022-12-24T14:14:41;42.33;;;7.88;;
22812;SDS011;11573;51.334;3.244;2022-12-24T14:20:06;54.30;;;8.50;;
22812;SDS011;11573;51.334;3.244;2022-12-24T14:22:37;44.08;;;8.82;;
22812;SDS011;11573;51.334;3.244;2022-12-24T14:25:20;47.75;;;8.68;;
22812;SDS011;11573;51.334;3.244;2022-12-24T14:27:50;40.45;;;8.75;;
22812;SDS011;11573;51.334;3.244;2022-12-24T14:30:38;41.55;;;8.15;;
22812;SDS011;11573;51.334;3.244;2022-12-24T14:33:05;45.03;;;8.60;;
22812;SDS011;11573;51.334;3.244;2022-12-24T14:35:51;47.00;;;9.18;;
22812;SDS011;11573;51.334;3.244;2022-12-24T14:38:18;46.13;;;9.43;;
22812;SDS011;11573;51.334;3.244;2022-12-24T14:43:29;52.60;;;10.48;;
22812;SDS011;11573;51.334;3.244;2022-12-24T14:46:27;41.33;;;8.82;;
22812;SDS011;11573;51.334;3.244;2022-12-24T14:51:36;38.80;;;8.43;;
22812;SDS011;11573;51.334;3.244;2022-12-24T14:54:36;48.70;;;8.52;;
22812;SDS011;11573;51.334;3.244;2022-12-24T15:08:00;43.33;;;9.57;;
22812;SDS011;11573;51.334;3.244;2022-12-24T15:10:30;38.35;;;8.23;;
22812;SDS011;11573;51.334;3.244;2022-12-24T15:13:27;47.78;;;8.82;;
22812;SDS011;11573;51.334;3.244;2022-12-24T15:16:13;36.38;;;8.25;;
22812;SDS011;11573;51.334;3.244;2022-12-24T15:18:48;41.53;;;9.70;;
22812;SDS011;11573;51.334;3.244;2022-12-24T15:21:24;42.47;;;9.63;;
22812;SDS011;11573;51.334;3.244;2022-12-24T15:23:56;33.35;;;8.30;;
22812;SDS011;11573;51.334;3.244;2022-12-24T15:28:56;44.85;;;9.48;;
22812;SDS011;11573;51.334;3.244;2022-12-24T15:31:29;48.78;;;9.27;;
22812;SDS011;11573;51.334;3.244;2022-12-24T15:33:57;51.03;;;10.65;;
22812;SDS011;11573;51.334;3.244;2022-12-24T15:36:29;43.50;;;9.60;;
22812;SDS011;11573;51.334;3.244;2022-12-24T15:39:01;44.58;;;9.15;;
22812;SDS011;11573;51.334;3.244;2022-12-24T15:41:34;48.25;;;8.82;;
22812;SDS011;11573;51.334;3.244;2022-12-24T15:44:03;58.80;;;11.07;;
22812;SDS011;11573;51.334;3.244;2022-12-24T15:46:30;54.65;;;11.65;;
22812;SDS011;11573;51.334;3.244;2022-12-24T15:48:59;61.75;;;11.57;;
22812;SDS011;11573;51.334;3.244;2022-12-24T15:51:32;45.22;;;10.80;;
22812;SDS011;11573;51.334;3.244;2022-12-24T15:54:07;49.65;;;9.93;;
22812;SDS011;11573;51.334;3.244;2022-12-24T15:56:40;44.80;;;9.73;;
22812;SDS011;11573;51.334;3.244;2022-12-24T16:01:44;56.63;;;10.10;;
22812;SDS011;11573;51.334;3.244;2022-12-24T16:04:20;57.88;;;10.10;;
22812;SDS011;11573;51.334;3.244;2022-12-24T16:06:50;46.88;;;9.07;;
22812;SDS011;11573;51.334;3.244;2022-12-24T16:09:43;52.55;;;9.82;;
22812;SDS011;11573;51.334;3.244;2022-12-24T16:12:12;44.47;;;9.98;;
22812;SDS011;11573;51.334;3.244;2022-12-24T16:14:50;51.63;;;8.88;;
22812;SDS011;11573;51.334;3.244;2022-12-24T16:17:21;45.97;;;9.70;;
22812;SDS011;11573;51.334;3.244;2022-12-24T16:19:51;53.92;;;9.57;;
22812;SDS011;11573;51.334;3.244;2022-12-24T16:22:20;55.78;;;11.55;;
22812;SDS011;11573;51.334;3.244;2022-12-24T16:24:58;54.65;;;10.07;;
22812;SDS011;11573;51.334;3.244;2022-12-24T16:27:26;57.45;;;9.13;;
22812;SDS011;11573;51.334;3.244;2022-12-24T16:29:53;45.15;;;9.40;;
22812;SDS011;11573;51.334;3.244;2022-12-24T16:32:33;42.15;;;9.93;;
22812;SDS011;11573;51.334;3.244;2022-12-24T16:35:02;38.55;;;9.75;;
22812;SDS011;11573;51.334;3.244;2022-12-24T16:37:30;47.22;;;10.15;;
22812;SDS011;11573;51.334;3.244;2022-12-24T16:39:58;46.70;;;11.77;;
22812;SDS011;11573;51.334;3.244;2022-12-24T16:42:25;64.63;;;21.75;;
22812;SDS011;11573;51.334;3.244;2022-12-24T16:45:11;110.53;;;41.88;;
22812;SDS011;11573;51.334;3.244;2022-12-24T16:47:38;61.67;;;22.58;;
22812;SDS011;11573;51.334;3.244;2022-12-24T16:50:13;52.22;;;18.50;;
22812;SDS011;11573;51.334;3.244;2022-12-24T16:52:42;51.00;;;17.40;;
22812;SDS011;11573;51.334;3.244;2022-12-24T16:55:11;55.55;;;12.93;;
22812;SDS011;11573;51.334;3.244;2022-12-24T16:57:39;49.33;;;13.27;;
22812;SDS011;11573;51.334;3.244;2022-12-24T17:00:29;59.70;;;12.43;;
22812;SDS011;11573;51.334;3.244;2022-12-24T17:02:54;51.38;;;13.63;;
22812;SDS011;11573;51.334;3.244;2022-12-24T17:05:22;53.63;;;13.50;;
22812;SDS011;11573;51.334;3.244;2022-12-24T17:07:49;58.83;;;13.35;;
22812;SDS011;11573;51.334;3.244;2022-12-24T17:10:16;51.65;;;11.63;;
22812;SDS011;11573;51.334;3.244;2022-12-24T17:12:43;50.40;;;12.48;;
22812;SDS011;11573;51.334;3.244;2022-12-24T17:15:10;51.75;;;12.75;;
22812;SDS011;11573;51.334;3.244;2022-12-24T17:17:38;44.22;;;12.45;;